Time;durP1;ratioP1;P1;durP2;ratioP2;P2;SDS_P1;SDS_P2;PMS_P1;PMS_P2;Temp;Humidity;BMP_temperature;BMP_pressure;BME280_temperature;BME280_humidity;BME280_pressure;Samples;Min_cycle;Max_cycle;Signal;HPM_P1;HPM_P2
2022/08/28 00:01:30;;;;;;;13.20;5.10;;;;;;;18.10;61.15;101838.03;5045831;28;20017;-59
2022/08/28 00:03:58;;;;;;;11.43;5.38;;;;;;;18.05;61.22;101840.63;5045205;28;20033;-61
2022/08/28 00:06:24;;;;;;;12.30;5.25;;;;;;;18.06;60.96;101834.47;5046397;28;20555;-61
2022/08/28 00:08:49;;;;;;;12.65;5.40;;;;;;;18.06;61.17;101834.47;5050298;28;20040;-61
2022/08/28 00:11:14;;;;;;;12.23;5.38;;;;;;;18.04;61.38;101838.88;5045600;28;20036;-60
2022/08/28 00:13:40;;;;;;;12.13;5.22;;;;;;;18.01;61.06;101841.47;5046319;28;20079;-61
2022/08/28 00:16:05;;;;;;;13.60;5.70;;;;;;;17.98;61.49;101836.19;5046391;28;20024;-60
2022/08/28 00:18:31;;;;;;;11.80;5.30;;;;;;;17.95;61.45;101838.78;5043714;28;20029;-60
2022/08/28 00:20:57;;;;;;;11.90;5.60;;;;;;;17.95;61.84;101839.66;5044393;28;20040;-60
2022/08/28 00:23:24;;;;;;;13.48;6.20;;;;;;;17.92;61.81;101841.41;5048120;28;20079;-61
2022/08/28 00:25:50;;;;;;;14.70;6.22;;;;;;;17.87;61.28;101836.94;5046126;28;20033;-61
2022/08/28 00:28:16;;;;;;;13.60;5.45;;;;;;;17.83;61.91;101835.13;5035360;28;20112;-61
2022/08/28 00:30:48;;;;;;;15.18;5.22;;;;;;;17.82;62.02;101838.63;5045734;28;20047;-61
2022/08/28 00:33:21;;;;;;;13.02;5.80;;;;;;;17.81;61.76;101843.91;5047038;28;20059;-61
2022/08/28 00:35:48;;;;;;;13.93;5.68;;;;;;;17.77;62.05;101843.00;5047691;28;20033;-61
2022/08/28 00:38:15;;;;;;;13.98;5.45;;;;;;;17.74;62.27;101848.22;5048637;28;20083;-61
2022/08/28 00:40:43;;;;;;;14.40;5.93;;;;;;;17.69;62.25;101844.66;5049145;28;20120;-60
2022/08/28 00:43:10;;;;;;;11.15;5.30;;;;;;;17.69;61.97;101853.44;5043827;28;20528;-61
2022/08/28 00:45:35;;;;;;;15.25;5.80;;;;;;;17.67;62.12;101849.91;5035692;28;20041;-61
2022/08/28 00:48:01;;;;;;;13.65;5.60;;;;;;;17.65;62.68;101848.13;5045600;28;20109;-60
2022/08/28 00:52:04;;;;;;;10.82;5.25;;;;;;;17.63;62.52;101850.75;5046084;28;20494;-60
2022/08/28 00:53:19;;;;;;;12.98;5.40;;;;;;;17.62;62.55;101846.34;5040533;28;20044;-60
2022/08/28 00:55:45;;;;;;;14.85;5.88;;;;;;;17.56;62.41;101849.78;5044833;28;20562;-59
2022/08/28 00:58:11;;;;;;;15.57;5.70;;;;;;;17.54;62.58;101846.28;5047762;28;20392;-60
2022/08/28 01:00:39;;;;;;;14.52;5.20;;;;;;;17.52;62.33;101853.28;5047320;28;20392;-60
2022/08/28 01:03:05;;;;;;;15.80;5.40;;;;;;;17.50;62.58;101865.53;5043799;28;20067;-60
2022/08/28 01:05:33;;;;;;;15.75;5.53;;;;;;;17.45;63.09;101861.09;5047543;28;20060;-60
2022/08/28 01:07:59;;;;;;;17.77;5.80;;;;;;;17.44;63.17;101870.75;5046386;28;20029;-60
2022/08/28 01:10:28;;;;;;;14.60;5.78;;;;;;;17.41;62.80;101868.09;5047849;28;20024;-60
2022/08/28 01:12:55;;;;;;;16.30;5.47;;;;;;;17.37;62.90;101867.16;5047755;28;20510;-59
2022/08/28 01:15:27;;;;;;;13.60;5.60;;;;;;;17.37;63.21;101868.91;5047962;28;20030;-60
2022/08/28 01:17:58;;;;;;;12.38;5.45;;;;;;;17.33;63.38;101867.09;5018016;28;20036;-60
2022/08/28 01:20:27;;;;;;;14.15;6.20;;;;;;;17.32;63.17;101866.22;5048377;28;20060;-61
2022/08/28 01:22:52;;;;;;;14.73;5.45;;;;;;;17.33;63.48;101862.69;5044583;28;20135;-61
2022/08/28 01:25:23;;;;;;;15.05;5.47;;;;;;;17.30;63.10;101859.16;5047444;28;20124;-61
2022/08/28 01:27:50;;;;;;;14.15;5.40;;;;;;;17.26;63.74;101859.97;5042022;28;20171;-61
2022/08/28 01:30:20;;;;;;;14.18;5.80;;;;;;;17.23;63.67;101859.94;5046119;28;20033;-60
2022/08/28 01:32:49;;;;;;;13.93;5.35;;;;;;;17.19;63.86;101864.28;5047428;28;20036;-61
2022/08/28 01:35:19;;;;;;;12.77;5.63;;;;;;;17.15;64.01;101863.38;5038162;28;20114;-60
2022/08/28 01:37:45;;;;;;;13.27;5.85;;;;;;;17.13;64.26;101869.47;5037651;28;20033;-60
2022/08/28 01:40:16;;;;;;;12.63;5.28;;;;;;;17.10;64.06;101872.94;5047839;28;20188;-61
2022/08/28 01:42:43;;;;;;;12.88;5.80;;;;;;;17.05;64.38;101864.13;5025050;28;20167;-61
2022/08/28 01:45:13;;;;;;;15.60;5.90;;;;;;;17.01;64.91;101865.81;5020513;28;20128;-60
2022/08/28 01:47:41;;;;;;;12.27;5.38;;;;;;;17.01;64.59;101875.47;5050949;28;20432;-60
2022/08/28 01:50:09;;;;;;;15.50;5.70;;;;;;;16.95;65.19;101875.41;5048332;28;20431;-61
2022/08/28 01:52:35;;;;;;;14.43;5.70;;;;;;;16.96;64.90;101874.50;5043070;28;20469;-61
2022/08/28 01:55:02;;;;;;;12.20;5.32;;;;;;;16.94;64.75;101878.88;5044430;28;20488;-60
2022/08/28 01:57:28;;;;;;;16.38;5.65;;;;;;;16.89;65.12;101872.66;5040909;28;20028;-60
2022/08/28 01:59:53;;;;;;;14.75;5.43;;;;;;;16.92;65.18;101878.00;5048286;28;20051;-60
2022/08/28 02:02:19;;;;;;;14.30;5.85;;;;;;;16.89;65.12;101870.94;5046625;28;20447;-60
2022/08/28 02:04:44;;;;;;;14.25;5.50;;;;;;;16.85;65.49;101877.84;5047371;28;20388;-60
2022/08/28 02:07:10;;;;;;;12.18;5.40;;;;;;;16.83;65.29;101879.59;5044571;28;20395;-60
2022/08/28 02:09:35;;;;;;;15.35;5.65;;;;;;;16.82;65.64;101885.69;5044011;28;20025;-60
2022/08/28 02:12:01;;;;;;;11.68;5.22;;;;;;;16.78;65.22;101876.00;5052137;28;20066;-60
2022/08/28 02:14:26;;;;;;;15.00;5.95;;;;;;;16.78;65.15;101881.25;5048376;28;20086;-60
2022/08/28 02:16:52;;;;;;;14.00;5.38;;;;;;;16.75;65.70;101883.84;5051100;28;20518;-60
2022/08/28 02:19:19;;;;;;;16.98;5.45;;;;;;;16.72;65.64;101881.16;5049469;28;20047;-60
2022/08/28 02:21:45;;;;;;;17.88;5.68;;;;;;;16.69;65.44;101883.75;5050812;28;20032;-60
2022/08/28 02:24:10;;;;;;;13.45;5.57;;;;;;;16.67;65.45;101890.75;5050210;28;20021;-60
2022/08/28 02:26:35;;;;;;;15.00;5.55;;;;;;;16.64;65.26;101888.97;5042198;28;20036;-61
2022/08/28 02:29:01;;;;;;;16.08;5.55;;;;;;;16.61;65.81;101885.38;5042226;28;20029;-60
2022/08/28 02:31:26;;;;;;;12.15;5.47;;;;;;;16.58;66.07;101891.47;5043580;28;20476;-60
2022/08/28 02:33:52;;;;;;;16.38;5.65;;;;;;;16.56;65.53;101895.84;5048825;28;20079;-60
2022/08/28 02:36:17;;;;;;;14.82;6.05;;;;;;;16.56;65.49;101892.34;5048518;28;20037;-60
2022/08/28 02:38:44;;;;;;;13.85;5.78;;;;;;;16.52;65.66;101896.66;5050326;28;20403;-60
2022/08/28 02:41:11;;;;;;;12.60;5.20;;;;;;;16.48;65.47;101900.09;5048710;28;20611;-60
2022/08/28 02:43:37;;;;;;;14.88;5.60;;;;;;;16.48;65.79;101895.72;5051023;28;20021;-60
2022/08/28 02:46:03;;;;;;;14.20;5.70;;;;;;;16.41;66.00;101893.84;5047872;28;20028;-60
2022/08/28 02:48:31;;;;;;;15.07;5.70;;;;;;;16.41;65.80;101892.94;5048477;28;20057;-60
2022/08/28 02:50:59;;;;;;;12.13;5.88;;;;;;;16.38;66.19;101898.16;5051192;28;20036;-60
2022/08/28 02:53:25;;;;;;;14.27;5.53;;;;;;;16.34;66.19;101892.00;5047081;28;20267;-60
2022/08/28 02:55:50;;;;;;;12.23;5.30;;;;;;;16.32;66.45;101888.44;5050251;28;20278;-61
2022/08/28 02:58:15;;;;;;;13.05;5.88;;;;;;;16.30;66.59;101895.41;5051428;28;20029;-60
2022/08/28 03:00:41;;;;;;;14.63;5.60;;;;;;;16.25;66.42;101886.56;5051050;28;20209;-60
2022/08/28 03:03:07;;;;;;;14.18;5.88;;;;;;;16.24;66.44;101890.06;5048319;28;20037;-60
2022/08/28 03:05:32;;;;;;;16.05;5.95;;;;;;;16.24;67.01;101895.31;5050346;28;20025;-60
2022/08/28 03:07:58;;;;;;;13.13;6.00;;;;;;;16.20;66.43;101896.13;5050781;28;20031;-59
2022/08/28 03:10:23;;;;;;;15.13;6.45;;;;;;;16.19;66.70;101887.34;5047977;28;20028;-59
2022/08/28 03:12:48;;;;;;;13.85;5.45;;;;;;;16.16;66.64;101897.81;5048644;28;20124;-59
2022/08/28 03:15:15;;;;;;;14.50;5.72;;;;;;;16.15;66.74;101896.94;5050297;28;20522;-60
2022/08/28 03:17:41;;;;;;;12.80;5.50;;;;;;;16.13;66.83;101893.41;5048732;28;20048;-60
2022/08/28 03:20:08;;;;;;;13.38;5.70;;;;;;;16.12;66.67;101902.13;5047002;28;20033;-58
2022/08/28 03:25:18;;;;;;;14.70;5.63;;;;;;;16.04;67.11;101901.09;5047653;28;20048;-60
2022/08/28 03:27:44;;;;;;;11.68;5.60;;;;;;;16.04;67.29;101902.88;5048651;28;20442;-61
2022/08/28 03:30:10;;;;;;;12.93;5.38;;;;;;;16.01;66.91;101913.31;5036894;28;20516;-61
2022/08/28 03:32:35;;;;;;;13.35;5.85;;;;;;;16.00;67.06;101915.03;5050949;28;20037;-61
2022/08/28 03:35:02;;;;;;;13.70;5.38;;;;;;;15.97;67.59;101912.38;5045697;28;20472;-61
2022/08/28 03:37:27;;;;;;;13.52;6.07;;;;;;;15.94;67.57;101912.31;5049328;28;20029;-60
2022/08/28 03:39:52;;;;;;;10.35;5.15;;;;;;;15.91;67.43;101915.75;5047119;28;20029;-60
2022/08/28 03:42:18;;;;;;;13.50;6.10;;;;;;;15.86;67.57;101911.28;5048191;28;20765;-61
2022/08/28 03:44:43;;;;;;;12.45;5.63;;;;;;;15.81;67.99;101919.06;5044604;28;20036;-60
2022/08/28 03:47:09;;;;;;;11.10;5.30;;;;;;;15.81;68.03;101919.97;5046225;28;20574;-60
2022/08/28 03:49:35;;;;;;;13.77;5.38;;;;;;;15.78;68.05;101924.25;5045170;28;21615;-60
2022/08/28 03:52:00;;;;;;;12.38;5.32;;;;;;;15.77;68.03;101920.75;5045486;28;20020;-60
2022/08/28 03:54:25;;;;;;;14.30;5.80;;;;;;;15.76;68.20;101924.22;5034040;28;20037;-60
2022/08/28 03:56:51;;;;;;;11.82;5.88;;;;;;;15.74;68.23;101920.69;5048420;28;20029;-60
2022/08/28 03:59:17;;;;;;;13.25;5.25;;;;;;;15.72;67.70;101925.00;5046818;28;20476;-60
2022/08/28 04:01:42;;;;;;;13.77;5.32;;;;;;;15.70;68.09;101926.72;5047677;28;20129;-60
2022/08/28 04:04:08;;;;;;;13.93;5.13;;;;;;;15.68;68.02;101925.78;5044678;28;20055;-60
2022/08/28 04:06:33;;;;;;;13.35;5.20;;;;;;;15.64;67.80;101930.13;5045086;28;20056;-60
2022/08/28 04:08:58;;;;;;;13.40;5.20;;;;;;;15.62;67.72;101933.56;5050127;28;20043;-60
2022/08/28 04:11:24;;;;;;;13.50;5.80;;;;;;;15.57;68.11;101925.59;5048648;28;20040;-60
2022/08/28 04:13:49;;;;;;;13.50;5.20;;;;;;;15.56;67.63;101925.56;5047982;28;20067;-60
2022/08/28 04:16:17;;;;;;;13.15;5.43;;;;;;;15.53;67.56;101923.75;5044058;28;20075;-61
2022/08/28 04:18:44;;;;;;;11.57;4.90;;;;;;;15.49;67.85;101927.16;5048317;28;20044;-59
2022/08/28 04:21:13;;;;;;;10.90;5.20;;;;;;;15.46;67.80;101916.59;5045656;28;20040;-60
2022/08/28 04:23:44;;;;;;;12.95;5.43;;;;;;;15.43;68.30;101925.28;5046373;28;20033;-60
2022/08/28 04:26:18;;;;;;;12.95;5.03;;;;;;;15.37;68.15;101925.19;5047714;28;20078;-60
2022/08/28 04:28:44;;;;;;;13.32;5.20;;;;;;;15.33;68.19;101927.72;5030419;28;20105;-60
2022/08/28 04:31:09;;;;;;;12.23;5.65;;;;;;;15.32;69.28;101932.06;5047861;28;20439;-60
2022/08/28 04:33:36;;;;;;;11.85;5.45;;;;;;;15.27;68.53;101933.72;5048375;28;20461;-61
2022/08/28 04:36:07;;;;;;;13.60;5.30;;;;;;;15.25;68.62;101935.41;5044102;28;20032;-61
2022/08/28 04:38:32;;;;;;;13.48;5.50;;;;;;;15.24;68.90;101938.91;5045749;28;20063;-60
2022/08/28 04:40:58;;;;;;;14.43;5.07;;;;;;;15.23;69.07;101937.13;5049328;28;20060;-61
2022/08/28 04:43:23;;;;;;;10.70;5.00;;;;;;;15.20;69.09;101939.69;5043067;28;20068;-61
2022/08/28 04:45:49;;;;;;;16.00;5.47;;;;;;;15.16;69.16;101937.84;5045533;28;20120;-61
2022/08/28 04:48:14;;;;;;;11.43;5.18;;;;;;;15.10;69.13;101942.09;5046327;28;20103;-61
2022/08/28 04:50:44;;;;;;;15.18;5.70;;;;;;;15.09;69.27;101940.34;5047275;28;20033;-60
2022/08/28 04:53:11;;;;;;;13.85;5.68;;;;;;;15.07;69.52;101942.03;5047935;28;20025;-60
2022/08/28 04:55:44;;;;;;;12.57;5.78;;;;;;;15.07;68.87;101941.16;5047644;28;20498;-61
2022/08/28 04:58:10;;;;;;;12.20;5.15;;;;;;;15.06;69.10;101939.38;5048295;28;20036;-61
2022/08/28 05:00:41;;;;;;;15.00;5.57;;;;;;;15.05;68.75;101943.75;5044034;28;20025;-61
2022/08/28 05:03:06;;;;;;;14.15;5.45;;;;;;;15.04;68.89;101951.56;5046511;28;20033;-61
2022/08/28 05:05:32;;;;;;;11.20;5.53;;;;;;;14.99;69.50;101943.59;5044528;28;20434;-61
2022/08/28 05:07:57;;;;;;;12.95;5.45;;;;;;;14.97;69.64;101955.78;5046689;28;20067;-61
2022/08/28 05:10:24;;;;;;;14.95;6.50;;;;;;;14.91;70.98;101951.28;5047387;28;20021;-61
2022/08/28 05:12:49;;;;;;;14.43;6.43;;;;;;;14.90;70.96;101956.50;5048741;28;20029;-60
2022/08/28 05:15:15;;;;;;;17.42;6.25;;;;;;;14.89;70.72;101965.25;5046985;28;20063;-61
2022/08/28 05:17:40;;;;;;;17.50;6.82;;;;;;;14.89;70.18;101965.25;5049121;28;20028;-61
2022/08/28 05:20:06;;;;;;;14.35;6.20;;;;;;;14.89;70.39;101965.25;5043096;28;20036;-61
2022/08/28 05:22:31;;;;;;;17.75;6.40;;;;;;;14.88;70.90;101972.19;5042765;28;20013;-61
2022/08/28 05:24:59;;;;;;;12.15;5.72;;;;;;;14.87;70.41;101973.03;5042969;28;20035;-60
2022/08/28 05:27:25;;;;;;;14.38;5.90;;;;;;;14.88;70.34;101971.31;5042930;28;20094;-60
2022/08/28 05:29:51;;;;;;;13.48;5.80;;;;;;;14.87;70.03;101975.66;5048047;28;20033;-61
2022/08/28 05:32:17;;;;;;;13.13;5.82;;;;;;;14.81;70.77;101974.66;5048295;28;20394;-60
2022/08/28 05:34:42;;;;;;;15.15;5.95;;;;;;;14.83;70.88;101976.47;5047883;28;20484;-60
2022/08/28 05:37:08;;;;;;;13.57;5.43;;;;;;;14.83;70.64;101976.47;5044882;28;20090;-60
2022/08/28 05:39:34;;;;;;;14.40;5.47;;;;;;;14.83;70.15;101978.19;5046200;28;20052;-61
2022/08/28 05:41:59;;;;;;;16.48;5.93;;;;;;;14.81;70.39;101980.78;5043783;28;20080;-60
2022/08/28 05:44:24;;;;;;;15.43;5.70;;;;;;;14.82;70.66;101981.69;5036938;28;20021;-62
2022/08/28 05:46:50;;;;;;;11.38;5.50;;;;;;;14.77;71.02;101984.16;5042754;28;20099;-60
2022/08/28 05:49:18;;;;;;;12.77;5.75;;;;;;;14.78;70.86;101975.47;5048305;28;20032;-60
2022/08/28 05:51:44;;;;;;;18.27;5.80;;;;;;;14.77;71.00;101984.16;5040530;28;20029;-61
2022/08/28 05:54:11;;;;;;;15.02;5.75;;;;;;;14.76;71.09;101987.66;5043911;28;20476;-61
2022/08/28 05:56:39;;;;;;;14.40;5.72;;;;;;;14.75;71.31;101984.13;5048080;28;20033;-60
2022/08/28 05:59:06;;;;;;;15.07;6.22;;;;;;;14.74;71.80;101990.25;5042776;28;20439;-60
2022/08/28 06:01:37;;;;;;;13.63;6.00;;;;;;;14.74;72.05;101990.25;5045708;28;20047;-60
2022/08/28 06:04:02;;;;;;;15.32;6.05;;;;;;;14.74;72.63;101985.00;5044709;28;20025;-59
2022/08/28 06:06:32;;;;;;;15.05;5.97;;;;;;;14.72;73.25;101991.94;5047557;28;20377;-61
2022/08/28 06:09:00;;;;;;;13.77;5.88;;;;;;;14.72;73.30;101991.94;5030083;28;20028;-61
2022/08/28 06:11:28;;;;;;;13.75;6.20;;;;;;;14.70;73.64;102003.22;5047526;28;20039;-61
2022/08/28 06:13:53;;;;;;;19.20;5.82;;;;;;;14.71;73.85;102008.50;5039125;28;20477;-61
2022/08/28 06:16:19;;;;;;;14.82;6.30;;;;;;;14.71;74.11;102005.88;5040854;28;20026;-61
2022/08/28 06:18:45;;;;;;;15.85;6.13;;;;;;;14.72;74.13;102002.44;5038242;28;20120;-60
2022/08/28 06:21:11;;;;;;;16.10;6.03;;;;;;;14.73;74.06;101998.97;5045163;28;20070;-61
2022/08/28 06:23:36;;;;;;;15.75;6.13;;;;;;;14.74;74.13;101995.50;5045874;28;20029;-60
2022/08/28 06:26:05;;;;;;;15.57;6.43;;;;;;;14.75;74.24;101997.25;5047536;28;20040;-60
2022/08/28 06:28:31;;;;;;;13.65;6.13;;;;;;;14.77;74.50;101999.91;5048005;28;20029;-60
2022/08/28 06:30:59;;;;;;;17.98;6.60;;;;;;;14.78;74.89;102001.69;5047030;28;20036;-60
2022/08/28 06:33:25;;;;;;;16.27;6.53;;;;;;;14.80;74.95;101999.97;5011709;28;20056;-60
2022/08/28 06:35:53;;;;;;;13.10;6.20;;;;;;;14.82;74.52;102002.69;5046092;28;20064;-61
2022/08/28 06:38:20;;;;;;;16.38;6.90;;;;;;;14.84;75.01;102006.22;5048020;28;20040;-60
2022/08/28 06:40:49;;;;;;;14.68;6.65;;;;;;;14.87;75.02;102009.78;5044550;28;20107;-60
2022/08/28 06:43:15;;;;;;;16.00;7.13;;;;;;;14.88;75.13;102014.19;5023466;28;20053;-60
2022/08/28 06:45:43;;;;;;;16.95;7.13;;;;;;;14.90;75.20;102011.59;5029860;28;20083;-60
2022/08/28 06:48:10;;;;;;;17.00;7.00;;;;;;;14.94;74.99;102018.72;5030643;28;20075;-61
2022/08/28 06:50:40;;;;;;;20.27;7.07;;;;;;;14.95;75.07;102020.50;5026280;28;20035;-61
2022/08/28 06:53:11;;;;;;;16.35;7.00;;;;;;;14.99;74.79;102024.06;5029712;28;20041;-60
2022/08/28 06:55:37;;;;;;;12.98;7.15;;;;;;;14.99;75.43;102019.72;5024061;28;20552;-61
2022/08/28 06:58:04;;;;;;;14.75;7.00;;;;;;;15.03;74.82;102021.53;5018678;28;20128;-60
2022/08/28 07:00:29;;;;;;;18.83;7.00;;;;;;;15.08;75.16;102019.06;5030611;28;20029;-60
2022/08/28 07:02:55;;;;;;;19.48;8.48;;;;;;;15.09;75.05;102024.34;5020892;28;20037;-61
2022/08/28 07:05:21;;;;;;;16.60;7.00;;;;;;;15.16;74.55;102024.47;5029006;28;20017;-60
2022/08/28 07:07:46;;;;;;;17.00;7.03;;;;;;;15.20;74.56;102019.31;5027213;28;20112;-60
2022/08/28 07:10:12;;;;;;;15.13;6.47;;;;;;;15.23;75.11;102019.38;5027769;28;20557;-61
2022/08/28 07:12:39;;;;;;;16.10;6.72;;;;;;;15.28;74.83;102022.16;5019437;28;20095;-60
2022/08/28 07:15:05;;;;;;;18.80;6.47;;;;;;;15.34;74.43;102024.00;5021896;28;20113;-61
2022/08/28 07:17:31;;;;;;;14.70;6.15;;;;;;;15.38;74.63;102026.75;5024972;28;20041;-60
2022/08/28 07:19:57;;;;;;;20.45;6.75;;;;;;;15.45;74.86;102018.16;5024120;28;20512;-62
2022/08/28 07:22:22;;;;;;;20.48;6.65;;;;;;;15.49;74.81;102019.09;5024064;28;20140;-60
2022/08/28 07:24:48;;;;;;;18.42;5.82;;;;;;;15.56;74.61;102015.75;5024106;28;20029;-61
2022/08/28 07:27:13;;;;;;;15.23;5.25;;;;;;;15.60;74.29;102016.72;5026030;28;20029;-61
2022/08/28 07:29:39;;;;;;;16.75;5.55;;;;;;;15.66;74.92;102027.38;5023202;28;20029;-62
2022/08/28 07:32:04;;;;;;;17.95;5.13;;;;;;;15.71;73.77;102023.06;5028869;28;20052;-61
2022/08/28 07:34:30;;;;;;;11.82;4.78;;;;;;;15.76;74.36;102026.72;5020844;28;20397;-61
2022/08/28 07:37:03;;;;;;;16.13;5.15;;;;;;;15.82;74.29;102025.97;5018320;28;20501;-61
2022/08/28 07:39:28;;;;;;;13.90;4.78;;;;;;;15.88;73.96;102030.47;5027353;28;20037;-61
2022/08/28 07:41:54;;;;;;;13.93;4.82;;;;;;;15.92;73.50;102035.81;5035509;28;20091;-61
2022/08/28 07:47:05;;;;;;;16.05;5.00;;;;;;;16.06;73.97;102038.75;5051268;28;20106;-61
2022/08/28 07:49:35;;;;;;;16.55;4.45;;;;;;;16.12;73.49;102044.13;5042991;28;20036;-61
2022/08/28 07:52:01;;;;;;;14.65;4.30;;;;;;;16.18;72.99;102040.72;5043740;28;20056;-61
2022/08/28 07:54:26;;;;;;;13.88;4.18;;;;;;;16.26;73.68;102044.38;5042636;28;20504;-61
2022/08/28 07:56:51;;;;;;;14.98;4.47;;;;;;;16.33;71.97;102051.53;5046052;28;20024;-61
2022/08/28 07:59:17;;;;;;;13.07;4.03;;;;;;;16.36;72.17;102042.81;5046059;28;20039;-61
2022/08/28 08:01:47;;;;;;;14.40;4.50;;;;;;;16.44;71.97;102051.75;5047418;28;20400;-61
2022/08/28 08:04:16;;;;;;;15.18;4.18;;;;;;;16.51;72.10;102051.00;5048444;28;20021;-61
2022/08/28 08:06:43;;;;;;;9.88;4.00;;;;;;;16.58;71.88;102048.47;5042094;28;20044;-61
2022/08/28 08:09:12;;;;;;;15.23;4.40;;;;;;;16.65;71.21;102051.25;5039874;28;20041;-61
2022/08/28 08:11:37;;;;;;;13.18;3.45;;;;;;;16.73;70.51;102058.38;5039020;28;20566;-61
2022/08/28 08:14:04;;;;;;;14.98;3.72;;;;;;;16.82;68.36;102056.81;5021723;28;20033;-61
2022/08/28 08:16:33;;;;;;;12.48;3.35;;;;;;;16.89;69.94;102051.66;5040584;28;20021;-61
2022/08/28 08:19:00;;;;;;;13.15;3.67;;;;;;;16.94;69.53;102056.16;5031527;28;20496;-62
2022/08/28 08:21:25;;;;;;;10.80;3.30;;;;;;;17.02;69.90;102054.53;5042788;28;20480;-62
2022/08/28 08:23:51;;;;;;;13.40;3.90;;;;;;;17.08;69.19;102045.88;5046259;28;20029;-61
2022/08/28 08:26:19;;;;;;;14.23;3.47;;;;;;;17.15;68.64;102058.28;5045231;28;20451;-61
2022/08/28 08:28:45;;;;;;;14.47;4.00;;;;;;;17.22;68.23;102059.25;5046244;28;20298;-59
2022/08/28 08:31:15;;;;;;;13.57;4.00;;;;;;;17.31;67.97;102053.25;5047986;28;20025;-62
2022/08/28 08:33:44;;;;;;;13.65;3.67;;;;;;;17.40;68.78;102053.38;5047719;28;20634;-61
2022/08/28 08:36:11;;;;;;;11.00;3.50;;;;;;;17.47;67.25;102059.63;5043121;28;20036;-61
2022/08/28 08:38:37;;;;;;;14.65;3.63;;;;;;;17.53;67.24;102065.84;5048998;28;20028;-61
2022/08/28 08:41:50;;;;;;;15.40;4.90;;;;;;;17.64;66.94;102055.47;5049844;28;20066;-61
2022/08/28 08:44:39;;;;;;;16.52;4.00;;;;;;;17.79;67.74;102056.56;5030154;28;20587;-61
2022/08/28 08:47:12;;;;;;;8.88;3.60;;;;;;;17.86;66.13;102056.66;5049315;28;20436;-61
2022/08/28 08:49:45;;;;;;;20.70;4.00;;;;;;;18.00;66.63;102050.69;5049805;28;20036;-61
2022/08/28 08:52:11;;;;;;;13.50;4.30;;;;;;;18.14;66.88;102061.41;5043798;28;20025;-62
2022/08/28 08:54:41;;;;;;;10.60;3.83;;;;;;;18.23;66.59;102062.41;5048996;28;20558;-61
2022/08/28 08:57:10;;;;;;;13.07;3.92;;;;;;;18.33;64.74;102047.53;5036009;28;20294;-62
2022/08/28 08:59:37;;;;;;;15.15;3.50;;;;;;;18.40;65.38;102045.88;5048798;28;20539;-61
2022/08/28 09:02:22;;;;;;;13.50;3.65;;;;;;;18.58;64.72;102047.78;5045267;28;20057;-61
2022/08/28 09:04:58;;;;;;;11.13;3.38;;;;;;;18.73;63.62;102047.94;5044953;28;20025;-61
2022/08/28 09:07:44;;;;;;;9.57;3.20;;;;;;;18.86;64.59;102048.97;5048436;28;20492;-61
2022/08/28 09:10:12;;;;;;;11.75;3.17;;;;;;;18.96;63.13;102049.03;5048785;28;20523;-61
2022/08/28 09:13:20;;;;;;;13.32;3.38;;;;;;;19.11;63.44;102054.44;5047234;28;20036;-60
2022/08/28 09:15:45;;;;;;;13.23;3.90;;;;;;;19.26;61.94;102046.66;5033339;28;20041;-60
2022/08/28 09:18:27;;;;;;;13.57;3.55;;;;;;;19.39;61.52;102049.34;5050116;28;20021;-60
2022/08/28 09:20:55;;;;;;;14.80;3.78;;;;;;;19.46;60.98;102048.50;5030087;28;20033;-60
2022/08/28 09:23:22;;;;;;;10.37;3.47;;;;;;;19.60;60.25;102056.53;5041495;28;20043;-60
2022/08/28 09:26:02;;;;;;;12.85;3.50;;;;;;;19.73;60.98;102053.06;5046016;28;20029;-60
2022/08/28 09:28:37;;;;;;;14.00;3.90;;;;;;;19.87;59.96;102055.84;5036241;28;20024;-59
2022/08/28 09:31:02;;;;;;;9.45;3.38;;;;;;;19.95;59.04;102050.56;5048496;28;20025;-61
2022/08/28 09:33:41;;;;;;;10.65;3.75;;;;;;;20.03;59.04;102055.88;5049779;28;20031;-60
2022/08/28 09:36:28;;;;;;;11.20;3.28;;;;;;;20.14;59.88;102048.88;5034321;28;20032;-60
2022/08/28 09:39:06;;;;;;;12.48;3.20;;;;;;;20.21;59.25;102045.34;5048722;28;20029;-60
2022/08/28 09:44:20;;;;;;;14.57;3.63;;;;;;;20.45;58.21;102054.22;5043396;28;20059;-60
2022/08/28 09:46:50;;;;;;;13.80;3.50;;;;;;;20.52;56.75;102056.00;5040431;28;20025;-60
2022/08/28 09:49:22;;;;;;;14.90;3.50;;;;;;;20.61;56.54;102049.84;5044334;28;20400;-60
2022/08/28 09:51:49;;;;;;;14.57;3.67;;;;;;;20.62;54.01;102052.50;5047761;28;20033;-59
2022/08/28 09:54:31;;;;;;;9.30;3.50;;;;;;;20.63;57.03;102048.97;5048210;28;20029;-59
2022/08/28 09:56:57;;;;;;;13.45;3.60;;;;;;;20.69;55.96;102047.25;5048779;28;20076;-59
2022/08/28 09:59:26;;;;;;;11.32;3.20;;;;;;;20.77;55.71;102051.66;5047815;28;20095;-60
2022/08/28 10:02:11;;;;;;;11.45;3.40;;;;;;;20.83;54.38;102045.50;5029612;28;20025;-60
2022/08/28 10:05:06;;;;;;;11.98;3.35;;;;;;;20.85;55.28;102049.00;5046384;28;20033;-60
2022/08/28 10:08:08;;;;;;;11.27;3.28;;;;;;;20.91;54.59;102049.00;5048632;28;20055;-60
2022/08/28 10:10:54;;;;;;;12.43;3.53;;;;;;;21.00;54.36;102037.50;5017522;28;20055;-60
2022/08/28 10:13:26;;;;;;;11.45;3.40;;;;;;;21.13;52.16;102046.34;5049047;28;20037;-59
2022/08/28 10:16:24;;;;;;;8.52;3.20;;;;;;;21.21;54.49;102052.53;5029732;28;20036;-59
2022/08/28 10:19:11;;;;;;;12.80;3.50;;;;;;;21.37;54.59;102048.09;5049182;28;20036;-49
2022/08/28 10:21:49;;;;;;;12.48;3.58;;;;;;;21.48;53.29;102046.28;5052909;28;20025;-49
2022/08/28 10:25:00;;;;;;;12.40;3.80;;;;;;;21.56;54.24;102053.38;5052285;28;20048;-50
2022/08/28 10:27:38;;;;;;;12.43;3.63;;;;;;;21.52;52.25;102052.50;5047151;28;20068;-52
2022/08/28 10:30:08;;;;;;;8.50;3.55;;;;;;;21.47;52.39;102052.47;5038609;28;20028;-49
2022/08/28 10:32:48;;;;;;;10.27;3.35;;;;;;;21.44;52.61;102051.63;5042225;28;20101;-53
2022/08/28 10:35:17;;;;;;;12.55;3.55;;;;;;;21.46;52.86;102049.81;5047101;28;20185;-51
2022/08/28 10:38:07;;;;;;;20.17;3.80;;;;;;;21.49;53.41;102045.41;5050371;28;20404;-53
2022/08/28 10:40:38;;;;;;;9.07;2.90;;;;;;;21.47;52.83;102046.28;5051217;28;20094;-51
2022/08/28 10:43:18;;;;;;;10.68;3.17;;;;;;;21.52;52.08;102039.22;5051271;28;20076;-52
2022/08/28 10:45:44;;;;;;;12.48;3.42;;;;;;;21.57;50.13;102039.25;5052202;28;20036;-50
2022/08/28 10:48:16;;;;;;;10.55;3.00;;;;;;;21.59;51.40;102035.66;5051782;28;20028;-60
2022/08/28 10:50:49;;;;;;;10.93;3.00;;;;;;;21.62;49.64;102035.66;5029168;28;20407;-60
2022/08/28 10:53:20;;;;;;;8.75;2.90;;;;;;;21.77;52.53;102039.13;5050033;28;20135;-60
2022/08/28 10:55:54;;;;;;;9.45;3.20;;;;;;;21.85;53.59;102040.00;5044822;28;20477;-61
2022/08/28 10:58:23;;;;;;;11.23;3.22;;;;;;;21.92;50.98;102043.53;5031017;28;20071;-60
2022/08/28 11:00:50;;;;;;;;;;;;;;;22.00;51.41;102047.00;5052457;28;20067;-60
2022/08/28 11:03:21;;;;;;;9.00;2.75;;;;;;;21.91;50.17;102045.28;5046246;28;19959;-58
2022/08/28 11:05:53;;;;;;;10.13;3.00;;;;;;;21.94;50.83;102047.94;5039067;28;20024;-59
2022/08/28 11:08:32;;;;;;;11.38;3.47;;;;;;;21.94;51.22;102050.59;5038687;28;20036;-60
2022/08/28 11:11:01;;;;;;;7.68;2.80;;;;;;;21.89;51.58;102047.06;5039563;28;20028;-60
2022/08/28 11:13:40;;;;;;;8.27;2.70;;;;;;;21.88;50.88;102040.88;5042900;28;20035;-60
2022/08/28 11:16:15;;;;;;;10.43;2.80;;;;;;;21.88;49.44;102055.91;5039895;28;20310;-60
2022/08/28 11:18:41;;;;;;;11.07;2.72;;;;;;;21.86;50.42;102045.31;5039384;28;20035;-59
2022/08/28 11:21:18;;;;;;;8.50;2.73;;;;;;;21.94;50.75;102047.94;5040306;28;20052;-60
2022/08/28 11:23:52;;;;;;;14.18;3.25;;;;;;;22.05;50.18;102039.91;5038884;28;20291;-60
2022/08/28 11:26:32;;;;;;;8.10;2.50;;;;;;;22.17;50.58;102039.88;5040031;28;20032;-59
2022/08/28 11:28:58;;;;;;;7.25;2.40;;;;;;;22.31;49.40;102049.50;5040607;28;20032;-59
2022/08/28 11:31:23;;;;;;;9.48;2.75;;;;;;;22.37;48.92;102034.44;5038714;28;20641;-60
2022/08/28 11:33:54;;;;;;;9.97;2.50;;;;;;;22.60;51.00;102046.69;5040899;28;20527;-59